sensor_id;sensor_type;location;lat;lon;timestamp;temperature;humidity
20102;DHT22;10210;52.284;9.892;2022-12-04T00:01:12;3.30;99.90
20102;DHT22;10210;52.284;9.892;2022-12-04T00:03:41;3.30;99.90
20102;DHT22;10210;52.284;9.892;2022-12-04T00:06:10;3.30;99.90
20102;DHT22;10210;52.284;9.892;2022-12-04T00:08:38;3.20;99.90
20102;DHT22;10210;52.284;9.892;2022-12-04T00:11:06;3.30;99.90
20102;DHT22;10210;52.284;9.892;2022-12-04T00:13:34;3.30;99.90
20102;DHT22;10210;52.284;9.892;2022-12-04T00:16:00;3.30;99.90
20102;DHT22;10210;52.284;9.892;2022-12-04T00:18:28;3.30;99.90
20102;DHT22;10210;52.284;9.892;2022-12-04T00:20:54;3.30;99.90
20102;DHT22;10210;52.284;9.892;2022-12-04T00:23:20;3.30;99.90
20102;DHT22;10210;52.284;9.892;2022-12-04T00:25:45;3.30;99.90
20102;DHT22;10210;52.284;9.892;2022-12-04T00:28:15;3.30;99.90
20102;DHT22;10210;52.284;9.892;2022-12-04T00:30:43;3.30;99.90
20102;DHT22;10210;52.284;9.892;2022-12-04T00:33:13;3.30;99.90
20102;DHT22;10210;52.284;9.892;2022-12-04T00:35:39;3.30;99.90
20102;DHT22;10210;52.284;9.892;2022-12-04T00:38:05;3.40;99.90
20102;DHT22;10210;52.284;9.892;2022-12-04T00:40:30;3.30;99.90
20102;DHT22;10210;52.284;9.892;2022-12-04T00:42:56;3.40;99.90
20102;DHT22;10210;52.284;9.892;2022-12-04T00:45:22;3.30;99.90
20102;DHT22;10210;52.284;9.892;2022-12-04T00:47:48;3.40;99.90
20102;DHT22;10210;52.284;9.892;2022-12-04T00:50:14;3.30;99.90
20102;DHT22;10210;52.284;9.892;2022-12-04T00:52:39;3.40;99.90
20102;DHT22;10210;52.284;9.892;2022-12-04T00:55:05;3.30;99.90
20102;DHT22;10210;52.284;9.892;2022-12-04T00:57:32;3.40;99.90
20102;DHT22;10210;52.284;9.892;2022-12-04T00:59:57;3.40;99.90
20102;DHT22;10210;52.284;9.892;2022-12-04T01:02:23;3.40;99.90
20102;DHT22;10210;52.284;9.892;2022-12-04T01:04:49;3.30;99.90
20102;DHT22;10210;52.284;9.892;2022-12-04T01:07:15;3.40;99.90
20102;DHT22;10210;52.284;9.892;2022-12-04T01:09:40;3.40;99.90
20102;DHT22;10210;52.284;9.892;2022-12-04T01:12:06;3.40;99.90
20102;DHT22;10210;52.284;9.892;2022-12-04T01:14:32;3.40;99.90
20102;DHT22;10210;52.284;9.892;2022-12-04T01:16:57;3.30;99.90
20102;DHT22;10210;52.284;9.892;2022-12-04T01:19:23;3.30;99.90
20102;DHT22;10210;52.284;9.892;2022-12-04T01:21:49;3.30;99.90
20102;DHT22;10210;52.284;9.892;2022-12-04T01:24:15;3.30;99.90
20102;DHT22;10210;52.284;9.892;2022-12-04T01:26:41;3.30;99.90
20102;DHT22;10210;52.284;9.892;2022-12-04T01:29:06;3.30;99.90
20102;DHT22;10210;52.284;9.892;2022-12-04T01:31:32;3.30;99.90
20102;DHT22;10210;52.284;9.892;2022-12-04T01:33:58;3.30;99.90
20102;DHT22;10210;52.284;9.892;2022-12-04T01:36:26;3.30;99.90
20102;DHT22;10210;52.284;9.892;2022-12-04T01:38:53;3.30;99.90
20102;DHT22;10210;52.284;9.892;2022-12-04T01:41:25;3.30;99.90
20102;DHT22;10210;52.284;9.892;2022-12-04T01:44:14;3.30;99.90
20102;DHT22;10210;52.284;9.892;2022-12-04T01:46:53;3.30;99.90
20102;DHT22;10210;52.284;9.892;2022-12-04T01:49:37;3.40;99.90
20102;DHT22;10210;52.284;9.892;2022-12-04T01:52:19;3.30;99.90
20102;DHT22;10210;52.284;9.892;2022-12-04T01:54:50;3.30;99.90
20102;DHT22;10210;52.284;9.892;2022-12-04T01:57:23;3.30;99.90
20102;DHT22;10210;52.284;9.892;2022-12-04T01:59:58;3.30;99.90
20102;DHT22;10210;52.284;9.892;2022-12-04T02:02:33;3.30;99.90
20102;DHT22;10210;52.284;9.892;2022-12-04T02:05:02;3.40;99.90
20102;DHT22;10210;52.284;9.892;2022-12-04T02:07:30;3.40;99.90
20102;DHT22;10210;52.284;9.892;2022-12-04T02:09:57;3.40;99.90
20102;DHT22;10210;52.284;9.892;2022-12-04T02:12:46;3.30;99.90
20102;DHT22;10210;52.284;9.892;2022-12-04T02:15:22;3.40;99.90
20102;DHT22;10210;52.284;9.892;2022-12-04T02:18:23;3.30;99.90
20102;DHT22;10210;52.284;9.892;2022-12-04T02:24:20;3.40;99.90
20102;DHT22;10210;52.284;9.892;2022-12-04T02:30:08;3.30;99.90
20102;DHT22;10210;52.284;9.892;2022-12-04T02:32:38;3.40;99.90
20102;DHT22;10210;52.284;9.892;2022-12-04T02:38:31;3.30;99.90
20102;DHT22;10210;52.284;9.892;2022-12-04T02:41:22;3.30;99.90
20102;DHT22;10210;52.284;9.892;2022-12-04T02:44:02;3.30;99.90
20102;DHT22;10210;52.284;9.892;2022-12-04T02:46:36;3.30;99.90
20102;DHT22;10210;52.284;9.892;2022-12-04T02:49:11;3.40;99.90
20102;DHT22;10210;52.284;9.892;2022-12-04T02:51:42;3.40;99.90
20102;DHT22;10210;52.284;9.892;2022-12-04T02:54:22;3.30;99.90
20102;DHT22;10210;52.284;9.892;2022-12-04T02:56:54;3.30;99.90
20102;DHT22;10210;52.284;9.892;2022-12-04T02:59:28;3.30;99.90
20102;DHT22;10210;52.284;9.892;2022-12-04T03:02:06;3.30;99.90
20102;DHT22;10210;52.284;9.892;2022-12-04T03:04:38;3.30;99.90
20102;DHT22;10210;52.284;9.892;2022-12-04T03:07:10;3.30;99.90
20102;DHT22;10210;52.284;9.892;2022-12-04T03:09:50;3.30;99.90
20102;DHT22;10210;52.284;9.892;2022-12-04T03:12:51;3.30;99.90
20102;DHT22;10210;52.284;9.892;2022-12-04T03:15:30;3.30;99.90
20102;DHT22;10210;52.284;9.892;2022-12-04T03:18:06;3.30;99.90
20102;DHT22;10210;52.284;9.892;2022-12-04T03:20:37;3.30;99.90
20102;DHT22;10210;52.284;9.892;2022-12-04T03:23:10;3.30;99.90
20102;DHT22;10210;52.284;9.892;2022-12-04T03:25:55;3.30;99.90
20102;DHT22;10210;52.284;9.892;2022-12-04T03:28:33;3.30;99.90
20102;DHT22;10210;52.284;9.892;2022-12-04T03:31:11;3.30;99.90
20102;DHT22;10210;52.284;9.892;2022-12-04T03:33:45;3.30;99.90
20102;DHT22;10210;52.284;9.892;2022-12-04T03:36:30;3.30;99.90
20102;DHT22;10210;52.284;9.892;2022-12-04T03:39:20;3.40;99.90
20102;DHT22;10210;52.284;9.892;2022-12-04T03:42:07;3.40;99.90
20102;DHT22;10210;52.284;9.892;2022-12-04T03:45:00;3.40;99.90
20102;DHT22;10210;52.284;9.892;2022-12-04T03:47:41;3.40;99.90
20102;DHT22;10210;52.284;9.892;2022-12-04T03:50:27;3.40;99.90
20102;DHT22;10210;52.284;9.892;2022-12-04T03:53:05;3.40;99.90
20102;DHT22;10210;52.284;9.892;2022-12-04T03:55:39;3.40;99.90
20102;DHT22;10210;52.284;9.892;2022-12-04T03:58:12;3.40;99.90
20102;DHT22;10210;52.284;9.892;2022-12-04T04:00:44;3.40;99.90
20102;DHT22;10210;52.284;9.892;2022-12-04T04:03:18;3.40;99.90
20102;DHT22;10210;52.284;9.892;2022-12-04T04:05:50;3.40;99.90
20102;DHT22;10210;52.284;9.892;2022-12-04T04:08:24;3.40;99.90
20102;DHT22;10210;52.284;9.892;2022-12-04T04:11:14;3.40;99.90
20102;DHT22;10210;52.284;9.892;2022-12-04T04:13:59;3.40;99.90
20102;DHT22;10210;52.284;9.892;2022-12-04T04:16:50;3.50;99.90
20102;DHT22;10210;52.284;9.892;2022-12-04T04:19:39;3.50;99.90
20102;DHT22;10210;52.284;9.892;2022-12-04T04:22:26;3.50;99.90
20102;DHT22;10210;52.284;9.892;2022-12-04T04:25:14;3.50;99.90
20102;DHT22;10210;52.284;9.892;2022-12-04T04:27:49;3.50;99.90
20102;DHT22;10210;52.284;9.892;2022-12-04T04:30:16;3.50;99.90
20102;DHT22;10210;52.284;9.892;2022-12-04T04:32:54;3.50;99.90
20102;DHT22;10210;52.284;9.892;2022-12-04T04:40:55;3.50;99.90
20102;DHT22;10210;52.284;9.892;2022-12-04T04:43:38;3.50;99.90
20102;DHT22;10210;52.284;9.892;2022-12-04T04:46:17;3.50;99.90
20102;DHT22;10210;52.284;9.892;2022-12-04T04:48:50;3.50;99.90
20102;DHT22;10210;52.284;9.892;2022-12-04T04:51:20;3.50;99.90
20102;DHT22;10210;52.284;9.892;2022-12-04T04:53:50;3.50;99.90
20102;DHT22;10210;52.284;9.892;2022-12-04T04:56:18;3.50;99.90
20102;DHT22;10210;52.284;9.892;2022-12-04T04:58:45;3.50;99.90
20102;DHT22;10210;52.284;9.892;2022-12-04T05:01:13;3.50;99.90
20102;DHT22;10210;52.284;9.892;2022-12-04T05:03:41;3.50;99.90
20102;DHT22;10210;52.284;9.892;2022-12-04T05:06:06;3.50;99.90
20102;DHT22;10210;52.284;9.892;2022-12-04T05:08:33;3.50;99.90
20102;DHT22;10210;52.284;9.892;2022-12-04T05:10:59;3.50;99.90
20102;DHT22;10210;52.284;9.892;2022-12-04T05:13:27;3.60;99.90
20102;DHT22;10210;52.284;9.892;2022-12-04T05:15:58;3.60;99.90
20102;DHT22;10210;52.284;9.892;2022-12-04T05:18:24;3.60;99.90
20102;DHT22;10210;52.284;9.892;2022-12-04T05:20:51;3.60;99.90
20102;DHT22;10210;52.284;9.892;2022-12-04T05:23:16;3.60;99.90
20102;DHT22;10210;52.284;9.892;2022-12-04T05:25:42;3.60;99.90
20102;DHT22;10210;52.284;9.892;2022-12-04T05:28:08;3.60;99.90
20102;DHT22;10210;52.284;9.892;2022-12-04T05:30:34;3.60;99.90
20102;DHT22;10210;52.284;9.892;2022-12-04T05:33:00;3.60;99.90
20102;DHT22;10210;52.284;9.892;2022-12-04T05:35:27;3.70;99.90
20102;DHT22;10210;52.284;9.892;2022-12-04T05:37:53;3.60;99.90
20102;DHT22;10210;52.284;9.892;2022-12-04T05:40:18;3.70;99.90
20102;DHT22;10210;52.284;9.892;2022-12-04T05:42:44;3.70;99.90
20102;DHT22;10210;52.284;9.892;2022-12-04T05:45:10;3.70;99.90
20102;DHT22;10210;52.284;9.892;2022-12-04T05:47:40;3.70;99.90
20102;DHT22;10210;52.284;9.892;2022-12-04T05:50:10;3.70;99.90
20102;DHT22;10210;52.284;9.892;2022-12-04T05:52:37;3.70;99.90
20102;DHT22;10210;52.284;9.892;2022-12-04T05:55:03;3.70;99.90
20102;DHT22;10210;52.284;9.892;2022-12-04T05:57:29;3.70;99.90
20102;DHT22;10210;52.284;9.892;2022-12-04T05:59:55;3.70;99.90
20102;DHT22;10210;52.284;9.892;2022-12-04T06:02:20;3.70;99.90
20102;DHT22;10210;52.284;9.892;2022-12-04T06:04:46;3.70;99.90
20102;DHT22;10210;52.284;9.892;2022-12-04T06:07:12;3.80;99.90
20102;DHT22;10210;52.284;9.892;2022-12-04T06:09:38;3.70;99.90
20102;DHT22;10210;52.284;9.892;2022-12-04T06:12:04;3.80;99.90
20102;DHT22;10210;52.284;9.892;2022-12-04T06:14:30;3.80;99.90
20102;DHT22;10210;52.284;9.892;2022-12-04T06:16:56;3.80;99.90
20102;DHT22;10210;52.284;9.892;2022-12-04T06:19:22;3.80;99.90
20102;DHT22;10210;52.284;9.892;2022-12-04T06:21:51;3.80;99.90
20102;DHT22;10210;52.284;9.892;2022-12-04T06:24:20;3.80;99.90
20102;DHT22;10210;52.284;9.892;2022-12-04T06:26:50;3.80;99.90
20102;DHT22;10210;52.284;9.892;2022-12-04T06:29:19;3.80;99.90
20102;DHT22;10210;52.284;9.892;2022-12-04T06:31:45;3.80;99.90
20102;DHT22;10210;52.284;9.892;2022-12-04T06:34:11;3.90;99.90
20102;DHT22;10210;52.284;9.892;2022-12-04T06:36:37;3.80;99.90
20102;DHT22;10210;52.284;9.892;2022-12-04T06:39:04;3.80;99.90
20102;DHT22;10210;52.284;9.892;2022-12-04T06:41:31;3.80;99.90
20102;DHT22;10210;52.284;9.892;2022-12-04T06:43:57;3.80;99.90
20102;DHT22;10210;52.284;9.892;2022-12-04T06:46:29;3.90;99.90
20102;DHT22;10210;52.284;9.892;2022-12-04T06:48:57;3.90;99.90
20102;DHT22;10210;52.284;9.892;2022-12-04T06:51:30;3.80;99.90
20102;DHT22;10210;52.284;9.892;2022-12-04T06:53:57;3.90;99.90
20102;DHT22;10210;52.284;9.892;2022-12-04T06:56:26;3.90;99.90
20102;DHT22;10210;52.284;9.892;2022-12-04T06:58:55;3.90;99.90
20102;DHT22;10210;52.284;9.892;2022-12-04T07:01:26;3.80;99.90
20102;DHT22;10210;52.284;9.892;2022-12-04T07:03:55;3.80;99.90
20102;DHT22;10210;52.284;9.892;2022-12-04T07:06:27;3.90;99.90
20102;DHT22;10210;52.284;9.892;2022-12-04T07:08:58;3.80;99.90
20102;DHT22;10210;52.284;9.892;2022-12-04T07:11:25;3.90;99.90
20102;DHT22;10210;52.284;9.892;2022-12-04T07:13:51;3.80;99.90
20102;DHT22;10210;52.284;9.892;2022-12-04T07:16:20;3.90;99.90
20102;DHT22;10210;52.284;9.892;2022-12-04T07:18:47;3.90;99.90
20102;DHT22;10210;52.284;9.892;2022-12-04T07:21:21;3.80;99.90
20102;DHT22;10210;52.284;9.892;2022-12-04T07:23:53;3.90;99.90
20102;DHT22;10210;52.284;9.892;2022-12-04T07:26:21;3.80;99.90
20102;DHT22;10210;52.284;9.892;2022-12-04T07:28:47;3.90;99.90
20102;DHT22;10210;52.284;9.892;2022-12-04T07:31:15;3.80;99.90
20102;DHT22;10210;52.284;9.892;2022-12-04T07:33:44;3.80;99.90
20102;DHT22;10210;52.284;9.892;2022-12-04T07:36:13;3.80;99.90
20102;DHT22;10210;52.284;9.892;2022-12-04T07:38:40;3.80;99.90
20102;DHT22;10210;52.284;9.892;2022-12-04T07:41:07;3.80;99.90
20102;DHT22;10210;52.284;9.892;2022-12-04T07:43:36;3.80;99.90
20102;DHT22;10210;52.284;9.892;2022-12-04T07:46:12;3.80;99.90
20102;DHT22;10210;52.284;9.892;2022-12-04T07:48:40;3.80;99.90
20102;DHT22;10210;52.284;9.892;2022-12-04T07:51:15;3.80;99.90
20102;DHT22;10210;52.284;9.892;2022-12-04T07:53:43;3.80;99.90
20102;DHT22;10210;52.284;9.892;2022-12-04T07:56:11;3.80;99.90
20102;DHT22;10210;52.284;9.892;2022-12-04T07:58:38;3.80;99.90
20102;DHT22;10210;52.284;9.892;2022-12-04T08:03:40;3.80;99.90
20102;DHT22;10210;52.284;9.892;2022-12-04T08:06:07;3.80;99.90
20102;DHT22;10210;52.284;9.892;2022-12-04T08:08:34;3.80;99.90
20102;DHT22;10210;52.284;9.892;2022-12-04T08:11:04;3.80;99.90
20102;DHT22;10210;52.284;9.892;2022-12-04T08:13:31;3.80;99.90
20102;DHT22;10210;52.284;9.892;2022-12-04T08:16:00;3.80;99.90
20102;DHT22;10210;52.284;9.892;2022-12-04T08:18:30;3.90;99.90
20102;DHT22;10210;52.284;9.892;2022-12-04T08:21:08;3.90;99.90
20102;DHT22;10210;52.284;9.892;2022-12-04T08:23:39;3.90;99.90
20102;DHT22;10210;52.284;9.892;2022-12-04T08:26:07;3.80;99.90
20102;DHT22;10210;52.284;9.892;2022-12-04T08:28:34;3.80;99.90
20102;DHT22;10210;52.284;9.892;2022-12-04T08:31:08;3.90;99.90
20102;DHT22;10210;52.284;9.892;2022-12-04T08:33:36;3.90;99.90
20102;DHT22;10210;52.284;9.892;2022-12-04T08:36:07;3.90;99.90
20102;DHT22;10210;52.284;9.892;2022-12-04T08:38:34;3.80;99.90
20102;DHT22;10210;52.284;9.892;2022-12-04T08:41:02;3.90;99.90
20102;DHT22;10210;52.284;9.892;2022-12-04T08:43:29;3.90;99.90
20102;DHT22;10210;52.284;9.892;2022-12-04T08:46:00;3.80;99.90
20102;DHT22;10210;52.284;9.892;2022-12-04T08:48:27;3.90;99.90
20102;DHT22;10210;52.284;9.892;2022-12-04T08:50:54;3.80;99.90
20102;DHT22;10210;52.284;9.892;2022-12-04T08:53:20;3.80;99.90
20102;DHT22;10210;52.284;9.892;2022-12-04T08:55:47;3.80;99.90
20102;DHT22;10210;52.284;9.892;2022-12-04T08:58:13;3.80;99.90
20102;DHT22;10210;52.284;9.892;2022-12-04T09:00:39;3.80;99.90
20102;DHT22;10210;52.284;9.892;2022-12-04T09:03:05;3.80;99.90
20102;DHT22;10210;52.284;9.892;2022-12-04T09:05:31;3.80;99.90
20102;DHT22;10210;52.284;9.892;2022-12-04T09:07:56;3.80;99.90
20102;DHT22;10210;52.284;9.892;2022-12-04T09:10:23;3.80;99.90
20102;DHT22;10210;52.284;9.892;2022-12-04T09:12:49;3.80;99.90
20102;DHT22;10210;52.284;9.892;2022-12-04T09:15:15;3.80;99.90
20102;DHT22;10210;52.284;9.892;2022-12-04T09:17:41;3.80;99.90
20102;DHT22;10210;52.284;9.892;2022-12-04T09:20:07;3.80;99.90
20102;DHT22;10210;52.284;9.892;2022-12-04T09:22:34;3.80;99.90
20102;DHT22;10210;52.284;9.892;2022-12-04T09:25:00;3.80;99.90
20102;DHT22;10210;52.284;9.892;2022-12-04T09:27:26;3.80;99.90
20102;DHT22;10210;52.284;9.892;2022-12-04T09:29:52;3.80;99.90
20102;DHT22;10210;52.284;9.892;2022-12-04T09:32:18;3.90;99.90
20102;DHT22;10210;52.284;9.892;2022-12-04T09:34:46;3.90;99.90
20102;DHT22;10210;52.284;9.892;2022-12-04T09:37:12;3.90;99.90
20102;DHT22;10210;52.284;9.892;2022-12-04T09:39:38;3.80;99.90
20102;DHT22;10210;52.284;9.892;2022-12-04T09:45:17;3.90;99.90
20102;DHT22;10210;52.284;9.892;2022-12-04T09:47:47;3.90;99.90
20102;DHT22;10210;52.284;9.892;2022-12-04T09:50:23;3.90;99.90
20102;DHT22;10210;52.284;9.892;2022-12-04T09:56:08;3.80;99.90
20102;DHT22;10210;52.284;9.892;2022-12-04T09:58:49;3.80;99.90
20102;DHT22;10210;52.284;9.892;2022-12-04T10:01:26;3.90;99.90
20102;DHT22;10210;52.284;9.892;2022-12-04T10:03:56;3.90;99.90
20102;DHT22;10210;52.284;9.892;2022-12-04T10:06:28;3.90;99.90
20102;DHT22;10210;52.284;9.892;2022-12-04T10:09:11;3.90;99.90
20102;DHT22;10210;52.284;9.892;2022-12-04T10:12:03;3.90;99.90
20102;DHT22;10210;52.284;9.892;2022-12-04T10:26:14;3.90;99.90
20102;DHT22;10210;52.284;9.892;2022-12-04T10:28:54;3.90;99.90
20102;DHT22;10210;52.284;9.892;2022-12-04T10:31:25;3.90;99.90
20102;DHT22;10210;52.284;9.892;2022-12-04T10:33:56;3.90;99.90
20102;DHT22;10210;52.284;9.892;2022-12-04T10:36:31;3.90;99.90
20102;DHT22;10210;52.284;9.892;2022-12-04T10:39:23;3.90;99.90
20102;DHT22;10210;52.284;9.892;2022-12-04T10:42:00;3.90;99.90
20102;DHT22;10210;52.284;9.892;2022-12-04T10:44:30;3.90;99.90
20102;DHT22;10210;52.284;9.892;2022-12-04T10:47:00;4.00;99.90
20102;DHT22;10210;52.284;9.892;2022-12-04T10:49:32;4.00;99.90
20102;DHT22;10210;52.284;9.892;2022-12-04T10:52:02;4.00;99.90
20102;DHT22;10210;52.284;9.892;2022-12-04T10:54:51;4.00;99.90
20102;DHT22;10210;52.284;9.892;2022-12-04T10:57:34;4.00;99.90
20102;DHT22;10210;52.284;9.892;2022-12-04T11:03:08;4.00;99.90
20102;DHT22;10210;52.284;9.892;2022-12-04T11:05:39;4.00;99.90
20102;DHT22;10210;52.284;9.892;2022-12-04T11:08:21;4.00;99.90
20102;DHT22;10210;52.284;9.892;2022-12-04T11:11:21;4.00;99.90
20102;DHT22;10210;52.284;9.892;2022-12-04T11:14:21;4.00;99.90
20102;DHT22;10210;52.284;9.892;2022-12-04T11:17:04;4.00;99.90
20102;DHT22;10210;52.284;9.892;2022-12-04T11:19:33;4.00;99.90
20102;DHT22;10210;52.284;9.892;2022-12-04T11:22:17;4.10;99.90
20102;DHT22;10210;52.284;9.892;2022-12-04T11:24:51;4.10;99.90
20102;DHT22;10210;52.284;9.892;2022-12-04T11:27:24;4.10;99.90
20102;DHT22;10210;52.284;9.892;2022-12-04T11:30:08;4.10;99.90
20102;DHT22;10210;52.284;9.892;2022-12-04T11:32:39;4.10;99.90
20102;DHT22;10210;52.284;9.892;2022-12-04T11:35:27;4.10;99.90
20102;DHT22;10210;52.284;9.892;2022-12-04T11:38:08;4.10;99.90
20102;DHT22;10210;52.284;9.892;2022-12-04T11:40:44;4.10;99.90
20102;DHT22;10210;52.284;9.892;2022-12-04T11:43:16;4.10;99.90
20102;DHT22;10210;52.284;9.892;2022-12-04T11:46:01;4.10;99.90
20102;DHT22;10210;52.284;9.892;2022-12-04T11:48:41;4.10;99.90
20102;DHT22;10210;52.284;9.892;2022-12-04T11:56:28;4.20;99.90
20102;DHT22;10210;52.284;9.892;2022-12-04T12:08:38;4.20;99.90
20102;DHT22;10210;52.284;9.892;2022-12-04T12:11:28;4.20;99.90
20102;DHT22;10210;52.284;9.892;2022-12-04T12:26:14;4.20;99.90
20102;DHT22;10210;52.284;9.892;2022-12-04T12:29:13;4.20;99.90
20102;DHT22;10210;52.284;9.892;2022-12-04T12:32:07;4.20;99.90
20102;DHT22;10210;52.284;9.892;2022-12-04T12:34:42;4.20;99.90
20102;DHT22;10210;52.284;9.892;2022-12-04T12:40:32;4.10;99.90
20102;DHT22;10210;52.284;9.892;2022-12-04T12:48:45;4.20;99.90
20102;DHT22;10210;52.284;9.892;2022-12-04T12:51:33;4.20;99.90
20102;DHT22;10210;52.284;9.892;2022-12-04T12:54:14;4.20;99.90
20102;DHT22;10210;52.284;9.892;2022-12-04T12:57:17;4.20;99.90
20102;DHT22;10210;52.284;9.892;2022-12-04T12:59:51;4.20;99.90
20102;DHT22;10210;52.284;9.892;2022-12-04T13:04:57;4.20;99.90
20102;DHT22;10210;52.284;9.892;2022-12-04T13:07:39;4.20;99.90
20102;DHT22;10210;52.284;9.892;2022-12-04T13:10:18;4.20;99.90
20102;DHT22;10210;52.284;9.892;2022-12-04T13:13:16;4.20;99.90
20102;DHT22;10210;52.284;9.892;2022-12-04T13:16:00;4.20;99.90
20102;DHT22;10210;52.284;9.892;2022-12-04T13:18:39;4.20;99.90
20102;DHT22;10210;52.284;9.892;2022-12-04T13:21:36;4.20;99.90
20102;DHT22;10210;52.284;9.892;2022-12-04T13:33:09;4.20;99.90
20102;DHT22;10210;52.284;9.892;2022-12-04T13:36:11;4.20;99.90
20102;DHT22;10210;52.284;9.892;2022-12-04T13:41:38;4.30;99.90
20102;DHT22;10210;52.284;9.892;2022-12-04T13:44:17;4.30;99.90
20102;DHT22;10210;52.284;9.892;2022-12-04T13:47:02;4.30;99.90
20102;DHT22;10210;52.284;9.892;2022-12-04T13:49:31;4.30;99.90
20102;DHT22;10210;52.284;9.892;2022-12-04T13:52:05;4.30;99.90
20102;DHT22;10210;52.284;9.892;2022-12-04T13:54:56;4.20;99.90
20102;DHT22;10210;52.284;9.892;2022-12-04T13:57:24;4.20;99.90
20102;DHT22;10210;52.284;9.892;2022-12-04T14:00:46;4.30;99.90
20102;DHT22;10210;52.284;9.892;2022-12-04T14:02:57;4.30;99.90
20102;DHT22;10210;52.284;9.892;2022-12-04T14:05:40;4.30;99.90
20102;DHT22;10210;52.284;9.892;2022-12-04T14:08:25;4.30;99.90
20102;DHT22;10210;52.284;9.892;2022-12-04T14:11:04;4.30;99.90
20102;DHT22;10210;52.284;9.892;2022-12-04T14:13:50;4.30;99.90
20102;DHT22;10210;52.284;9.892;2022-12-04T14:16:46;4.30;99.90
20102;DHT22;10210;52.284;9.892;2022-12-04T14:19:30;4.30;99.90
20102;DHT22;10210;52.284;9.892;2022-12-04T14:21:58;4.30;99.90
20102;DHT22;10210;52.284;9.892;2022-12-04T14:24:30;4.20;99.90
20102;DHT22;10210;52.284;9.892;2022-12-04T14:26:59;4.20;99.90
20102;DHT22;10210;52.284;9.892;2022-12-04T14:29:43;4.30;99.90
20102;DHT22;10210;52.284;9.892;2022-12-04T14:32:22;4.20;99.90
20102;DHT22;10210;52.284;9.892;2022-12-04T14:34:51;4.30;99.90
20102;DHT22;10210;52.284;9.892;2022-12-04T14:37:35;4.20;99.90
20102;DHT22;10210;52.284;9.892;2022-12-04T14:40:06;4.30;99.90
20102;DHT22;10210;52.284;9.892;2022-12-04T14:42:46;4.30;99.90
20102;DHT22;10210;52.284;9.892;2022-12-04T14:50:54;4.30;99.90
20102;DHT22;10210;52.284;9.892;2022-12-04T14:53:50;4.30;99.90
20102;DHT22;10210;52.284;9.892;2022-12-04T14:56:54;4.30;99.90
20102;DHT22;10210;52.284;9.892;2022-12-04T14:59:32;4.30;99.90
20102;DHT22;10210;52.284;9.892;2022-12-04T15:02:13;4.30;99.90
20102;DHT22;10210;52.284;9.892;2022-12-04T15:04:46;4.30;99.90
20102;DHT22;10210;52.284;9.892;2022-12-04T15:07:22;4.30;99.90
20102;DHT22;10210;52.284;9.892;2022-12-04T15:09:52;4.30;99.90
20102;DHT22;10210;52.284;9.892;2022-12-04T15:15:25;4.30;99.90
20102;DHT22;10210;52.284;9.892;2022-12-04T15:18:12;4.30;99.90
20102;DHT22;10210;52.284;9.892;2022-12-04T15:23:35;4.30;99.90
20102;DHT22;10210;52.284;9.892;2022-12-04T15:26:09;4.30;99.90
20102;DHT22;10210;52.284;9.892;2022-12-04T15:28:42;4.30;99.90
20102;DHT22;10210;52.284;9.892;2022-12-04T15:31:21;4.30;99.90
20102;DHT22;10210;52.284;9.892;2022-12-04T15:33:54;4.30;99.90
20102;DHT22;10210;52.284;9.892;2022-12-04T15:38:53;4.30;99.90
20102;DHT22;10210;52.284;9.892;2022-12-04T15:41:30;4.30;99.90
20102;DHT22;10210;52.284;9.892;2022-12-04T15:43:59;4.30;99.90
20102;DHT22;10210;52.284;9.892;2022-12-04T15:46:32;4.30;99.90
20102;DHT22;10210;52.284;9.892;2022-12-04T15:49:19;4.30;99.90
20102;DHT22;10210;52.284;9.892;2022-12-04T15:52:22;4.30;99.90
20102;DHT22;10210;52.284;9.892;2022-12-04T15:57:33;4.40;99.90
20102;DHT22;10210;52.284;9.892;2022-12-04T16:00:04;4.40;99.90
20102;DHT22;10210;52.284;9.892;2022-12-04T16:02:34;4.40;99.90
20102;DHT22;10210;52.284;9.892;2022-12-04T16:05:32;4.40;99.90
20102;DHT22;10210;52.284;9.892;2022-12-04T16:08:27;4.40;99.90
20102;DHT22;10210;52.284;9.892;2022-12-04T16:11:21;4.40;99.90
20102;DHT22;10210;52.284;9.892;2022-12-04T16:16:29;4.40;99.90
20102;DHT22;10210;52.284;9.892;2022-12-04T16:18:55;4.40;99.90
20102;DHT22;10210;52.284;9.892;2022-12-04T16:21:26;4.40;99.90
20102;DHT22;10210;52.284;9.892;2022-12-04T16:24:03;4.40;99.90
20102;DHT22;10210;52.284;9.892;2022-12-04T16:26:31;4.40;99.90
20102;DHT22;10210;52.284;9.892;2022-12-04T16:28:57;4.40;99.90
20102;DHT22;10210;52.284;9.892;2022-12-04T16:31:25;4.40;99.90
20102;DHT22;10210;52.284;9.892;2022-12-04T16:33:51;4.40;99.90
20102;DHT22;10210;52.284;9.892;2022-12-04T16:36:16;4.40;99.90
20102;DHT22;10210;52.284;9.892;2022-12-04T16:38:43;4.40;99.90
20102;DHT22;10210;52.284;9.892;2022-12-04T16:41:13;4.40;99.90
20102;DHT22;10210;52.284;9.892;2022-12-04T16:43:40;4.40;99.90
20102;DHT22;10210;52.284;9.892;2022-12-04T16:46:11;4.40;99.90
20102;DHT22;10210;52.284;9.892;2022-12-04T16:48:40;4.40;99.90
20102;DHT22;10210;52.284;9.892;2022-12-04T16:51:30;4.40;99.90
20102;DHT22;10210;52.284;9.892;2022-12-04T16:53:59;4.40;99.90
20102;DHT22;10210;52.284;9.892;2022-12-04T16:56:25;4.40;99.90
20102;DHT22;10210;52.284;9.892;2022-12-04T16:58:50;4.40;99.90
20102;DHT22;10210;52.284;9.892;2022-12-04T17:01:25;4.40;99.90
20102;DHT22;10210;52.284;9.892;2022-12-04T17:03:56;4.50;99.90
20102;DHT22;10210;52.284;9.892;2022-12-04T17:06:22;4.50;99.90
20102;DHT22;10210;52.284;9.892;2022-12-04T17:08:47;4.50;99.90
20102;DHT22;10210;52.284;9.892;2022-12-04T17:11:15;4.50;99.90
20102;DHT22;10210;52.284;9.892;2022-12-04T17:13:42;4.50;99.90
20102;DHT22;10210;52.284;9.892;2022-12-04T17:16:08;4.50;99.90
20102;DHT22;10210;52.284;9.892;2022-12-04T17:18:34;4.50;99.90
20102;DHT22;10210;52.284;9.892;2022-12-04T17:21:05;4.50;99.90
20102;DHT22;10210;52.284;9.892;2022-12-04T17:23:32;4.50;99.90
20102;DHT22;10210;52.284;9.892;2022-12-04T17:26:04;4.50;99.90
20102;DHT22;10210;52.284;9.892;2022-12-04T17:28:32;4.50;99.90
20102;DHT22;10210;52.284;9.892;2022-12-04T17:30:58;4.50;99.90
20102;DHT22;10210;52.284;9.892;2022-12-04T17:33:26;4.50;99.90
20102;DHT22;10210;52.284;9.892;2022-12-04T17:35:52;4.50;99.90
20102;DHT22;10210;52.284;9.892;2022-12-04T17:38:20;4.50;99.90
20102;DHT22;10210;52.284;9.892;2022-12-04T17:40:59;4.50;99.90
20102;DHT22;10210;52.284;9.892;2022-12-04T17:43:28;4.50;99.90
20102;DHT22;10210;52.284;9.892;2022-12-04T17:45:54;4.50;99.90
20102;DHT22;10210;52.284;9.892;2022-12-04T17:48:21;4.50;99.90
20102;DHT22;10210;52.284;9.892;2022-12-04T17:50:47;4.50;99.90
20102;DHT22;10210;52.284;9.892;2022-12-04T17:53:13;4.50;99.90
20102;DHT22;10210;52.284;9.892;2022-12-04T17:55:39;4.60;99.90
20102;DHT22;10210;52.284;9.892;2022-12-04T17:58:05;4.60;99.90
20102;DHT22;10210;52.284;9.892;2022-12-04T18:00:31;4.60;99.90
20102;DHT22;10210;52.284;9.892;2022-12-04T18:02:56;4.60;99.90
20102;DHT22;10210;52.284;9.892;2022-12-04T18:05:22;4.60;99.90
20102;DHT22;10210;52.284;9.892;2022-12-04T18:07:48;4.60;99.90
20102;DHT22;10210;52.284;9.892;2022-12-04T18:10:14;4.60;99.90